sensor_id;sensor_type;location;lat;lon;timestamp;pressure;altitude;pressure_sealevel;temperature;humidity
47218;BME280;47282;53.362;-2.222;2022-09-09T11:04:29;99792.13;;;38.33;31.28
47218;BME280;47282;53.362;-2.222;2022-09-09T11:07:02;99801.10;;;40.26;29.86
47218;BME280;47282;53.362;-2.222;2022-09-09T11:09:40;99805.73;;;41.54;28.32
47218;BME280;47282;53.362;-2.222;2022-09-09T11:12:15;99798.28;;;42.28;27.36
47218;BME280;47282;53.362;-2.222;2022-09-09T11:14:48;99801.25;;;43.59;25.84
47218;BME280;47282;53.362;-2.222;2022-09-09T11:17:20;99780.26;;;41.18;25.88
47218;BME280;47282;53.362;-2.222;2022-09-09T11:19:48;99777.54;;;38.30;27.82
47218;BME280;47282;53.362;-2.222;2022-09-09T11:22:22;99800.27;;;39.67;26.23
47218;BME280;47282;53.362;-2.222;2022-09-09T11:24:56;99782.11;;;41.11;24.55
47218;BME280;47282;53.362;-2.222;2022-09-09T11:27:29;99780.28;;;38.92;25.63
47218;BME280;47282;53.362;-2.222;2022-09-09T11:30:10;99777.65;;;36.53;27.60
47218;BME280;47282;53.362;-2.222;2022-09-09T11:32:56;99776.27;;;34.19;29.41
47218;BME280;47282;53.362;-2.222;2022-09-09T11:35:38;99780.63;;;32.65;30.75
47218;BME280;47282;53.362;-2.222;2022-09-09T11:38:18;99778.09;;;30.72;31.46
47218;BME280;47282;53.362;-2.222;2022-09-09T11:40:53;99786.19;;;29.83;32.38
47218;BME280;47282;53.362;-2.222;2022-09-09T11:43:24;99787.18;;;28.64;33.52
47218;BME280;47282;53.362;-2.222;2022-09-09T11:45:55;99788.16;;;27.65;34.48
47218;BME280;47282;53.362;-2.222;2022-09-09T11:48:26;99789.80;;;27.34;34.97
47218;BME280;47282;53.362;-2.222;2022-09-09T11:51:02;99795.98;;;26.72;35.46
47218;BME280;47282;53.362;-2.222;2022-09-09T11:53:31;99796.40;;;26.69;36.02
47218;BME280;47282;53.362;-2.222;2022-09-09T11:56:05;99804.92;;;25.92;36.62
47218;BME280;47282;53.362;-2.222;2022-09-09T11:58:38;99810.67;;;25.50;37.29
47218;BME280;47282;53.362;-2.222;2022-09-09T12:01:24;99815.15;;;25.39;37.85
47218;BME280;47282;53.362;-2.222;2022-09-09T12:04:06;99817.28;;;25.06;38.24
47218;BME280;47282;53.362;-2.222;2022-09-09T12:06:43;99818.36;;;24.75;38.65
47218;BME280;47282;53.362;-2.222;2022-09-09T12:09:19;99817.08;;;24.30;39.17
47218;BME280;47282;53.362;-2.222;2022-09-09T12:11:50;99820.42;;;24.18;39.98
47218;BME280;47282;53.362;-2.222;2022-09-09T12:14:21;99820.01;;;23.52;40.81
47218;BME280;47282;53.362;-2.222;2022-09-09T12:16:50;99825.27;;;22.73;41.77
47218;BME280;47282;53.362;-2.222;2022-09-09T12:19:21;99835.13;;;22.15;42.69
47218;BME280;47282;53.362;-2.222;2022-09-09T12:21:57;99845.61;;;21.51;44.24
47218;BME280;47282;53.362;-2.222;2022-09-09T12:24:34;99848.22;;;20.92;45.40
47218;BME280;47282;53.362;-2.222;2022-09-09T12:27:10;99844.98;;;20.10;46.38
47218;BME280;47282;53.362;-2.222;2022-09-09T12:29:46;99847.84;;;19.71;47.55
47218;BME280;47282;53.362;-2.222;2022-09-09T12:32:21;99849.43;;;19.39;48.17
47218;BME280;47282;53.362;-2.222;2022-09-09T12:34:53;99849.71;;;19.24;48.76
47218;BME280;47282;53.362;-2.222;2022-09-09T12:37:28;99856.07;;;18.91;49.70
47218;BME280;47282;53.362;-2.222;2022-09-09T12:39:59;99859.33;;;18.60;50.34
47218;BME280;47282;53.362;-2.222;2022-09-09T12:42:29;99860.32;;;18.81;50.83
47218;BME280;47282;53.362;-2.222;2022-09-09T12:44:58;99859.25;;;18.43;51.35
47218;BME280;47282;53.362;-2.222;2022-09-09T12:47:35;99863.41;;;18.38;51.72
47218;BME280;47282;53.362;-2.222;2022-09-09T12:50:10;99868.21;;;18.63;51.96
47218;BME280;47282;53.362;-2.222;2022-09-09T12:52:42;99865.30;;;18.67;52.07
47218;BME280;47282;53.362;-2.222;2022-09-09T12:55:18;99867.05;;;18.48;52.25
47218;BME280;47282;53.362;-2.222;2022-09-09T12:57:46;99867.38;;;18.55;52.43
47218;BME280;47282;53.362;-2.222;2022-09-09T13:00:17;99866.82;;;18.76;52.58
47218;BME280;47282;53.362;-2.222;2022-09-09T13:02:47;99873.32;;;19.11;52.25
47218;BME280;47282;53.362;-2.222;2022-09-09T13:05:19;99872.75;;;19.06;52.03
47218;BME280;47282;53.362;-2.222;2022-09-09T13:07:48;99876.04;;;19.99;51.58
47218;BME280;47282;53.362;-2.222;2022-09-09T13:10:22;99879.05;;;20.22;51.34
47218;BME280;47282;53.362;-2.222;2022-09-09T13:12:52;99881.28;;;20.47;50.77
47218;BME280;47282;53.362;-2.222;2022-09-09T13:15:22;99879.30;;;20.97;50.12
47218;BME280;47282;53.362;-2.222;2022-09-09T13:17:53;99879.85;;;21.24;49.71
47218;BME280;47282;53.362;-2.222;2022-09-09T13:20:23;99880.97;;;21.40;49.48
47218;BME280;47282;53.362;-2.222;2022-09-09T13:22:53;99876.37;;;21.93;49.28
47218;BME280;47282;53.362;-2.222;2022-09-09T13:25:24;99875.78;;;21.83;49.26
47218;BME280;47282;53.362;-2.222;2022-09-09T13:27:56;99873.56;;;21.97;49.21
47218;BME280;47282;53.362;-2.222;2022-09-09T13:30:27;99875.83;;;21.95;49.04
47218;BME280;47282;53.362;-2.222;2022-09-09T13:33:17;99879.08;;;22.24;48.92
47218;BME280;47282;53.362;-2.222;2022-09-09T13:35:49;99875.21;;;22.77;48.16
47218;BME280;47282;53.362;-2.222;2022-09-09T13:38:18;99872.94;;;24.57;45.66
47218;BME280;47282;53.362;-2.222;2022-09-09T13:40:55;99873.84;;;25.33;43.76
47218;BME280;47282;53.362;-2.222;2022-09-09T13:43:25;99872.45;;;25.12;43.47
47218;BME280;47282;53.362;-2.222;2022-09-09T13:45:55;99867.98;;;24.54;44.37
47218;BME280;47282;53.362;-2.222;2022-09-09T13:48:25;99870.29;;;23.97;45.67
47218;BME280;47282;53.362;-2.222;2022-09-09T13:50:56;99866.15;;;24.15;45.10
47218;BME280;47282;53.362;-2.222;2022-09-09T13:53:25;99867.73;;;24.84;44.48
47218;BME280;47282;53.362;-2.222;2022-09-09T13:55:53;99873.81;;;24.81;44.39
47218;BME280;47282;53.362;-2.222;2022-09-09T13:58:22;99878.43;;;25.33;43.93
47218;BME280;47282;53.362;-2.222;2022-09-09T14:00:50;99883.97;;;26.44;42.29
47218;BME280;47282;53.362;-2.222;2022-09-09T14:03:18;99882.98;;;27.18;40.97
47218;BME280;47282;53.362;-2.222;2022-09-09T14:05:47;99883.72;;;27.73;40.18
47218;BME280;47282;53.362;-2.222;2022-09-09T14:08:21;99883.09;;;28.30;39.43
47218;BME280;47282;53.362;-2.222;2022-09-09T14:10:50;99883.50;;;28.78;39.36
47218;BME280;47282;53.362;-2.222;2022-09-09T14:13:18;99883.66;;;27.86;39.97
47218;BME280;47282;53.362;-2.222;2022-09-09T14:15:48;99880.69;;;27.41;40.99
47218;BME280;47282;53.362;-2.222;2022-09-09T14:18:16;99883.64;;;26.57;42.06
47218;BME280;47282;53.362;-2.222;2022-09-09T14:20:44;99886.19;;;26.27;42.91
47218;BME280;47282;53.362;-2.222;2022-09-09T14:23:12;99887.65;;;25.85;43.58
47218;BME280;47282;53.362;-2.222;2022-09-09T14:25:41;99886.76;;;25.27;44.20
47218;BME280;47282;53.362;-2.222;2022-09-09T14:28:11;99885.57;;;24.73;44.90
47218;BME280;47282;53.362;-2.222;2022-09-09T14:30:41;99889.40;;;24.45;45.76
47218;BME280;47282;53.362;-2.222;2022-09-09T14:33:11;99901.04;;;23.76;46.43
47218;BME280;47282;53.362;-2.222;2022-09-09T14:35:39;99909.63;;;22.44;46.71
47218;BME280;47282;53.362;-2.222;2022-09-09T14:38:07;99920.72;;;21.72;47.40
47218;BME280;47282;53.362;-2.222;2022-09-09T14:40:37;99927.01;;;20.84;48.31
47218;BME280;47282;53.362;-2.222;2022-09-09T14:43:06;99928.26;;;20.14;49.28
47218;BME280;47282;53.362;-2.222;2022-09-09T14:45:35;99931.42;;;19.67;50.05
47218;BME280;47282;53.362;-2.222;2022-09-09T14:48:03;99934.54;;;19.20;50.63
47218;BME280;47282;53.362;-2.222;2022-09-09T14:50:32;99931.45;;;18.81;50.99
47218;BME280;47282;53.362;-2.222;2022-09-09T14:52:59;99931.13;;;18.37;51.23
47218;BME280;47282;53.362;-2.222;2022-09-09T14:55:27;99930.47;;;18.58;51.43
47218;BME280;47282;53.362;-2.222;2022-09-09T14:57:55;99928.32;;;18.22;51.41
47218;BME280;47282;53.362;-2.222;2022-09-09T15:00:24;99927.71;;;18.37;51.49
47218;BME280;47282;53.362;-2.222;2022-09-09T15:02:52;99929.24;;;18.12;51.57
47218;BME280;47282;53.362;-2.222;2022-09-09T15:05:20;99930.55;;;18.19;51.67
47218;BME280;47282;53.362;-2.222;2022-09-09T15:07:48;99933.85;;;18.87;51.83
47218;BME280;47282;53.362;-2.222;2022-09-09T15:10:17;99934.56;;;18.65;51.79
47218;BME280;47282;53.362;-2.222;2022-09-09T15:12:45;99930.51;;;18.97;51.76
47218;BME280;47282;53.362;-2.222;2022-09-09T15:15:13;99931.64;;;19.34;51.70
47218;BME280;47282;53.362;-2.222;2022-09-09T15:17:41;99930.39;;;19.76;51.56
47218;BME280;47282;53.362;-2.222;2022-09-09T15:20:09;99932.86;;;19.95;51.49
47218;BME280;47282;53.362;-2.222;2022-09-09T15:22:37;99934.41;;;20.58;51.28
47218;BME280;47282;53.362;-2.222;2022-09-09T15:25:06;99937.49;;;20.44;51.16
47218;BME280;47282;53.362;-2.222;2022-09-09T15:27:34;99941.85;;;21.05;50.92
47218;BME280;47282;53.362;-2.222;2022-09-09T15:30:02;99945.91;;;21.04;50.64
47218;BME280;47282;53.362;-2.222;2022-09-09T15:32:30;99946.67;;;21.27;50.66
47218;BME280;47282;53.362;-2.222;2022-09-09T15:34:58;99945.05;;;21.44;50.70
47218;BME280;47282;53.362;-2.222;2022-09-09T15:37:26;99942.42;;;21.41;50.86
47218;BME280;47282;53.362;-2.222;2022-09-09T15:39:54;99945.83;;;21.61;50.97
47218;BME280;47282;53.362;-2.222;2022-09-09T15:42:22;99947.06;;;21.51;50.82
47218;BME280;47282;53.362;-2.222;2022-09-09T15:44:50;99952.61;;;21.60;50.89
47218;BME280;47282;53.362;-2.222;2022-09-09T15:47:18;99955.31;;;21.60;51.08
47218;BME280;47282;53.362;-2.222;2022-09-09T15:49:46;99960.21;;;21.88;51.33
47218;BME280;47282;53.362;-2.222;2022-09-09T15:52:14;99961.14;;;21.62;51.44
47218;BME280;47282;53.362;-2.222;2022-09-09T15:54:42;99962.24;;;21.64;51.67
47218;BME280;47282;53.362;-2.222;2022-09-09T15:57:12;99967.92;;;21.62;51.91
47218;BME280;47282;53.362;-2.222;2022-09-09T15:59:40;99969.05;;;21.56;52.18
47218;BME280;47282;53.362;-2.222;2022-09-09T16:02:09;99969.40;;;21.46;52.37
47218;BME280;47282;53.362;-2.222;2022-09-09T16:04:37;99974.27;;;21.69;52.53
47218;BME280;47282;53.362;-2.222;2022-09-09T16:07:05;99974.86;;;21.40;52.59
47218;BME280;47282;53.362;-2.222;2022-09-09T16:09:34;99979.72;;;21.39;52.75
47218;BME280;47282;53.362;-2.222;2022-09-09T16:12:04;99978.65;;;21.39;52.89
47218;BME280;47282;53.362;-2.222;2022-09-09T16:14:32;99978.05;;;21.39;52.90
47218;BME280;47282;53.362;-2.222;2022-09-09T16:17:01;99977.98;;;21.49;52.84
47218;BME280;47282;53.362;-2.222;2022-09-09T16:19:29;99979.81;;;21.43;52.69
47218;BME280;47282;53.362;-2.222;2022-09-09T16:21:57;99976.77;;;22.05;52.11
47218;BME280;47282;53.362;-2.222;2022-09-09T16:24:25;99979.69;;;21.96;52.18
47218;BME280;47282;53.362;-2.222;2022-09-09T16:26:54;99980.67;;;22.12;52.41
47218;BME280;47282;53.362;-2.222;2022-09-09T16:29:22;99979.51;;;22.10;52.42
47218;BME280;47282;53.362;-2.222;2022-09-09T16:31:51;99979.60;;;22.15;52.15
47218;BME280;47282;53.362;-2.222;2022-09-09T16:34:19;99972.89;;;22.16;51.87
47218;BME280;47282;53.362;-2.222;2022-09-09T16:36:48;99974.84;;;22.54;51.70
47218;BME280;47282;53.362;-2.222;2022-09-09T16:39:18;99975.46;;;22.43;51.63
47218;BME280;47282;53.362;-2.222;2022-09-09T16:41:47;99980.56;;;22.35;51.45
47218;BME280;47282;53.362;-2.222;2022-09-09T16:44:17;99984.36;;;22.51;51.28
47218;BME280;47282;53.362;-2.222;2022-09-09T16:46:46;99986.25;;;22.81;51.28
47218;BME280;47282;53.362;-2.222;2022-09-09T16:49:15;99990.35;;;22.58;51.13
47218;BME280;47282;53.362;-2.222;2022-09-09T16:51:44;99995.34;;;22.51;51.28
47218;BME280;47282;53.362;-2.222;2022-09-09T16:54:14;99995.03;;;22.47;51.44
47218;BME280;47282;53.362;-2.222;2022-09-09T16:56:44;99998.72;;;22.36;51.62
47218;BME280;47282;53.362;-2.222;2022-09-09T16:59:14;99998.39;;;22.47;51.70
47218;BME280;47282;53.362;-2.222;2022-09-09T17:01:44;99997.18;;;22.10;51.87
47218;BME280;47282;53.362;-2.222;2022-09-09T17:04:14;99999.90;;;22.07;52.01
47218;BME280;47282;53.362;-2.222;2022-09-09T17:06:46;100004.45;;;21.79;52.44
47218;BME280;47282;53.362;-2.222;2022-09-09T17:09:14;100012.45;;;21.12;53.08
47218;BME280;47282;53.362;-2.222;2022-09-09T17:11:42;100020.03;;;20.74;53.30
47218;BME280;47282;53.362;-2.222;2022-09-09T17:14:14;100026.82;;;20.35;53.40
47218;BME280;47282;53.362;-2.222;2022-09-09T17:16:42;100030.61;;;19.85;53.72
47218;BME280;47282;53.362;-2.222;2022-09-09T17:19:11;100027.77;;;19.17;54.18
47218;BME280;47282;53.362;-2.222;2022-09-09T17:21:39;100026.46;;;18.89;54.73
47218;BME280;47282;53.362;-2.222;2022-09-09T17:24:08;100030.39;;;18.44;55.16
47218;BME280;47282;53.362;-2.222;2022-09-09T17:26:36;100036.30;;;18.50;55.67
47218;BME280;47282;53.362;-2.222;2022-09-09T17:29:04;100034.73;;;18.18;56.08
47218;BME280;47282;53.362;-2.222;2022-09-09T17:31:32;100031.51;;;18.16;56.63
47218;BME280;47282;53.362;-2.222;2022-09-09T17:34:00;100029.63;;;17.98;56.93
47218;BME280;47282;53.362;-2.222;2022-09-09T17:36:31;100028.22;;;17.82;57.10
47218;BME280;47282;53.362;-2.222;2022-09-09T17:39:01;100028.94;;;17.71;57.55
47218;BME280;47282;53.362;-2.222;2022-09-09T17:41:30;100028.79;;;17.68;57.87
47218;BME280;47282;53.362;-2.222;2022-09-09T17:43:59;100029.61;;;17.70;58.06
47218;BME280;47282;53.362;-2.222;2022-09-09T17:46:29;100032.92;;;17.69;58.32
47218;BME280;47282;53.362;-2.222;2022-09-09T17:48:59;100030.06;;;17.68;58.55
47218;BME280;47282;53.362;-2.222;2022-09-09T17:51:29;100035.01;;;17.41;58.80
47218;BME280;47282;53.362;-2.222;2022-09-09T17:54:00;100049.17;;;17.61;59.19
47218;BME280;47282;53.362;-2.222;2022-09-09T17:56:30;100052.21;;;17.48;59.55
47218;BME280;47282;53.362;-2.222;2022-09-09T17:59:00;100053.94;;;17.08;59.92
47218;BME280;47282;53.362;-2.222;2022-09-09T18:01:30;100057.15;;;17.34;59.99
47218;BME280;47282;53.362;-2.222;2022-09-09T18:04:00;100059.89;;;17.35;60.00
47218;BME280;47282;53.362;-2.222;2022-09-09T18:06:32;100061.14;;;17.40;59.97
47218;BME280;47282;53.362;-2.222;2022-09-09T18:09:04;100061.91;;;17.42;60.12
47218;BME280;47282;53.362;-2.222;2022-09-09T18:11:34;100070.32;;;17.58;60.16
47218;BME280;47282;53.362;-2.222;2022-09-09T18:14:04;100073.15;;;17.45;60.29
47218;BME280;47282;53.362;-2.222;2022-09-09T18:16:33;100075.00;;;17.04;60.55
47218;BME280;47282;53.362;-2.222;2022-09-09T18:19:02;100078.81;;;16.86;60.74
47218;BME280;47282;53.362;-2.222;2022-09-09T18:21:31;100078.32;;;16.65;60.93
47218;BME280;47282;53.362;-2.222;2022-09-09T18:24:02;100079.84;;;16.68;61.16
47218;BME280;47282;53.362;-2.222;2022-09-09T18:26:31;100079.56;;;16.76;61.44
47218;BME280;47282;53.362;-2.222;2022-09-09T18:29:02;100083.94;;;16.61;61.60
47218;BME280;47282;53.362;-2.222;2022-09-09T18:31:31;100084.75;;;16.44;61.77
47218;BME280;47282;53.362;-2.222;2022-09-09T18:34:01;100088.62;;;16.24;62.07
47218;BME280;47282;53.362;-2.222;2022-09-09T18:36:31;100091.39;;;16.06;62.38
47218;BME280;47282;53.362;-2.222;2022-09-09T18:39:01;100100.40;;;15.89;62.61
47218;BME280;47282;53.362;-2.222;2022-09-09T18:41:31;100101.85;;;15.95;62.84
47218;BME280;47282;53.362;-2.222;2022-09-09T18:44:02;100104.19;;;16.01;63.04
47218;BME280;47282;53.362;-2.222;2022-09-09T18:46:33;100108.98;;;15.68;63.25
47218;BME280;47282;53.362;-2.222;2022-09-09T18:49:04;100110.44;;;15.56;63.50
47218;BME280;47282;53.362;-2.222;2022-09-09T18:51:33;100112.87;;;15.43;63.73
47218;BME280;47282;53.362;-2.222;2022-09-09T18:54:04;100116.78;;;15.11;63.83
47218;BME280;47282;53.362;-2.222;2022-09-09T18:56:33;100118.09;;;15.45;64.08
47218;BME280;47282;53.362;-2.222;2022-09-09T18:59:04;100120.01;;;15.35;64.30
47218;BME280;47282;53.362;-2.222;2022-09-09T19:01:33;100120.68;;;15.26;64.44
47218;BME280;47282;53.362;-2.222;2022-09-09T19:04:03;100123.73;;;15.19;64.55
47218;BME280;47282;53.362;-2.222;2022-09-09T19:06:32;100127.91;;;15.10;64.69
47218;BME280;47282;53.362;-2.222;2022-09-09T19:09:01;100132.52;;;15.03;64.84
47218;BME280;47282;53.362;-2.222;2022-09-09T19:11:29;100139.74;;;14.95;65.05
47218;BME280;47282;53.362;-2.222;2022-09-09T19:13:59;100145.51;;;14.89;65.18
47218;BME280;47282;53.362;-2.222;2022-09-09T19:16:29;100155.96;;;14.82;65.48
47218;BME280;47282;53.362;-2.222;2022-09-09T19:18:58;100156.66;;;14.76;65.55
47218;BME280;47282;53.362;-2.222;2022-09-09T19:21:29;100161.21;;;15.01;65.58
47218;BME280;47282;53.362;-2.222;2022-09-09T19:23:59;100160.19;;;14.72;65.58
47218;BME280;47282;53.362;-2.222;2022-09-09T19:26:29;100165.41;;;14.68;65.64
47218;BME280;47282;53.362;-2.222;2022-09-09T19:28:58;100171.26;;;14.64;65.65
47218;BME280;47282;53.362;-2.222;2022-09-09T19:31:26;100178.06;;;14.63;65.65
47218;BME280;47282;53.362;-2.222;2022-09-09T19:33:55;100181.14;;;14.60;65.65
47218;BME280;47282;53.362;-2.222;2022-09-09T19:36:25;100180.77;;;14.59;65.71
47218;BME280;47282;53.362;-2.222;2022-09-09T19:38:53;100179.46;;;14.83;65.79
47218;BME280;47282;53.362;-2.222;2022-09-09T19:41:23;100180.34;;;14.52;65.75
47218;BME280;47282;53.362;-2.222;2022-09-09T19:43:55;100183.98;;;14.75;65.76
47218;BME280;47282;53.362;-2.222;2022-09-09T19:46:23;100185.95;;;14.42;65.86
47218;BME280;47282;53.362;-2.222;2022-09-09T19:48:52;100188.38;;;14.35;65.87
47218;BME280;47282;53.362;-2.222;2022-09-09T19:51:22;100193.97;;;14.28;65.89
47218;BME280;47282;53.362;-2.222;2022-09-09T19:53:52;100203.16;;;14.21;65.95
47218;BME280;47282;53.362;-2.222;2022-09-09T19:56:21;100209.38;;;14.62;66.03
47218;BME280;47282;53.362;-2.222;2022-09-09T19:58:50;100213.69;;;14.32;66.15
47218;BME280;47282;53.362;-2.222;2022-09-09T20:01:19;100214.47;;;14.46;66.26
47218;BME280;47282;53.362;-2.222;2022-09-09T20:03:50;100214.59;;;14.15;66.39
47218;BME280;47282;53.362;-2.222;2022-09-09T20:06:20;100218.04;;;14.28;66.53
47218;BME280;47282;53.362;-2.222;2022-09-09T20:08:48;100222.51;;;14.20;66.63
47218;BME280;47282;53.362;-2.222;2022-09-09T20:11:17;100225.57;;;13.64;66.74
47218;BME280;47282;53.362;-2.222;2022-09-09T20:13:46;100229.54;;;14.04;66.87
47218;BME280;47282;53.362;-2.222;2022-09-09T20:16:18;100234.18;;;13.99;66.92
47218;BME280;47282;53.362;-2.222;2022-09-09T20:18:48;100239.09;;;13.93;67.03
47218;BME280;47282;53.362;-2.222;2022-09-09T20:21:18;100245.01;;;14.14;67.13
47218;BME280;47282;53.362;-2.222;2022-09-09T20:23:48;100245.58;;;13.91;67.23
47218;BME280;47282;53.362;-2.222;2022-09-09T20:26:18;100247.54;;;13.88;67.29
47218;BME280;47282;53.362;-2.222;2022-09-09T20:28:47;100248.34;;;13.84;67.34
47218;BME280;47282;53.362;-2.222;2022-09-09T20:31:18;100249.07;;;13.79;67.45
47218;BME280;47282;53.362;-2.222;2022-09-09T20:33:47;100252.58;;;13.75;67.49
47218;BME280;47282;53.362;-2.222;2022-09-09T20:36:16;100254.36;;;13.91;67.60
47218;BME280;47282;53.362;-2.222;2022-09-09T20:38:47;100255.58;;;13.63;67.62
47218;BME280;47282;53.362;-2.222;2022-09-09T20:41:16;100259.62;;;13.59;67.66
47218;BME280;47282;53.362;-2.222;2022-09-09T20:43:45;100266.91;;;13.53;67.80
47218;BME280;47282;53.362;-2.222;2022-09-09T20:46:13;100265.36;;;13.70;67.83
47218;BME280;47282;53.362;-2.222;2022-09-09T20:48:42;100271.01;;;13.45;67.91
47218;BME280;47282;53.362;-2.222;2022-09-09T20:51:10;100274.45;;;13.42;68.01
47218;BME280;47282;53.362;-2.222;2022-09-09T20:53:38;100275.51;;;13.39;68.06
47218;BME280;47282;53.362;-2.222;2022-09-09T20:56:06;100277.92;;;13.58;68.08
47218;BME280;47282;53.362;-2.222;2022-09-09T20:58:35;100274.62;;;13.54;68.16
47218;BME280;47282;53.362;-2.222;2022-09-09T21:01:04;100278.97;;;13.28;68.20
47218;BME280;47282;53.362;-2.222;2022-09-09T21:03:34;100279.52;;;13.24;68.34
47218;BME280;47282;53.362;-2.222;2022-09-09T21:06:03;100277.55;;;13.45;68.50
47218;BME280;47282;53.362;-2.222;2022-09-09T21:08:31;100278.14;;;13.45;68.53
47218;BME280;47282;53.362;-2.222;2022-09-09T21:11:00;100278.73;;;13.22;68.45
47218;BME280;47282;53.362;-2.222;2022-09-09T21:13:29;100283.09;;;13.41;68.47
47218;BME280;47282;53.362;-2.222;2022-09-09T21:15:57;100283.67;;;13.38;68.44
47218;BME280;47282;53.362;-2.222;2022-09-09T21:18:25;100287.63;;;13.34;68.48
47218;BME280;47282;53.362;-2.222;2022-09-09T21:20:54;100291.73;;;13.31;68.45
47218;BME280;47282;53.362;-2.222;2022-09-09T21:23:23;100297.22;;;13.26;68.49
47218;BME280;47282;53.362;-2.222;2022-09-09T21:25:51;100306.14;;;13.01;68.52
47218;BME280;47282;53.362;-2.222;2022-09-09T21:28:19;100310.59;;;12.97;68.52
47218;BME280;47282;53.362;-2.222;2022-09-09T21:30:49;100312.86;;;13.17;68.53
47218;BME280;47282;53.362;-2.222;2022-09-09T21:33:19;100310.97;;;13.13;68.53
47218;BME280;47282;53.362;-2.222;2022-09-09T21:35:47;100311.03;;;13.09;68.59
47218;BME280;47282;53.362;-2.222;2022-09-09T21:38:17;100313.66;;;13.07;68.61
47218;BME280;47282;53.362;-2.222;2022-09-09T21:40:46;100315.73;;;13.05;68.67
47218;BME280;47282;53.362;-2.222;2022-09-09T21:43:15;100318.36;;;12.81;68.73
47218;BME280;47282;53.362;-2.222;2022-09-09T21:45:43;100323.28;;;12.82;68.73
47218;BME280;47282;53.362;-2.222;2022-09-09T21:48:12;100324.58;;;13.06;68.75
47218;BME280;47282;53.362;-2.222;2022-09-09T21:50:43;100325.30;;;13.36;68.68
